KOZR/OZR METAR and TAF weather

Enter ICAO airport designator
Station Type Date Time Source
KOZR METAR 2019/10/21 05:56 UTC NOAA

KOZR 210556Z AUTO 00000KT 5SM BR CLR 16/16 A2995 RMK AO2 SLP143 T01640157 10212 20162 402610153 57009


Station Type Date Time Source
KOZR Decoded METAR 2019/10/21 05:56 UTC NOAA

Cairns Army Air Field / Ozark, AL, United States (KOZR) 31-17N 085-43W
Oct 21, 2019 - 01:56 AM EDT / 2019.10.21 0556 UTC
Wind: Calm:0
Visibility: 5 mile(s):0
Sky conditions: clear
Weather: mist
Temperature: 61.5 F (16.4 C)
Dew Point: 60.3 F (15.7 C)
Relative Humidity: 95%
Pressure (altimeter): 29.95 in. Hg (1014 hPa)
Pressure tendency: 0.03 inches (0.9 hPa) lower than three hours ago
ob: KOZR 210556Z AUTO 00000KT 5SM BR CLR 16/16 A2995 RMK AO2 SLP143 T01640157 10212 20162 402610153 57009
cycle: 6

Station Type Date Time Source
KOZR TAF 2019/10/19 21:48 UTC NOAA

TAF TAF
AMD KOZR 192136Z 1921/2022 32010G15KT 8000 -RA OVC006 QNH2959INS
TEMPO 1921/1923 OVC005
BECMG 2005/2006 30010KT 8000 BR OVC008 QNH2980INS
BECMG 2010/2011 30006KT 6000 BR BKN004 OVC008 QNH2992INS
BECMG 2014/2015 30006KT 8000 BR OVC010 QNH2993INS
BECMG 2017/2018 33006KT 9999 NSW BKN015 QNH2997INS TX21/1921Z TN16/2012Z LAST NO
AMDS AFT 1922 NEXT 2108

Example: see airport list